sensor_id;sensor_type;location;lat;lon;timestamp;P1;durP1;ratioP1;P2;durP2;ratioP2
21213;SDS011;10764;50.850;2.904;2023-08-24T00:00:58;1216.55;;;999.90;;
21213;SDS011;10764;50.850;2.904;2023-08-24T00:11:36;1226.90;;;999.90;;
21213;SDS011;10764;50.850;2.904;2023-08-24T00:17:18;1190.63;;;999.90;;
21213;SDS011;10764;50.850;2.904;2023-08-24T00:19:45;1079.78;;;988.78;;
21213;SDS011;10764;50.850;2.904;2023-08-24T00:22:13;989.17;;;904.60;;
21213;SDS011;10764;50.850;2.904;2023-08-24T00:24:40;1044.25;;;955.47;;
21213;SDS011;10764;50.850;2.904;2023-08-24T00:27:07;962.70;;;879.50;;
21213;SDS011;10764;50.850;2.904;2023-08-24T00:29:35;860.30;;;785.70;;
21213;SDS011;10764;50.850;2.904;2023-08-24T00:32:02;854.53;;;780.53;;
21213;SDS011;10764;50.850;2.904;2023-08-24T00:34:29;885.33;;;808.78;;
21213;SDS011;10764;50.850;2.904;2023-08-24T00:36:57;833.03;;;760.63;;
21213;SDS011;10764;50.850;2.904;2023-08-24T00:39:24;1179.57;;;999.90;;
21213;SDS011;10764;50.850;2.904;2023-08-24T00:41:52;946.42;;;865.08;;
21213;SDS011;10764;50.850;2.904;2023-08-24T00:44:19;1004.23;;;918.50;;
21213;SDS011;10764;50.850;2.904;2023-08-24T00:46:47;887.92;;;811.28;;
21213;SDS011;10764;50.850;2.904;2023-08-24T00:49:14;892.38;;;815.08;;
21213;SDS011;10764;50.850;2.904;2023-08-24T00:51:42;1101.45;;;999.90;;
21213;SDS011;10764;50.850;2.904;2023-08-24T00:54:09;874.28;;;798.58;;
21213;SDS011;10764;50.850;2.904;2023-08-24T00:56:54;1130.70;;;999.90;;
21213;SDS011;10764;50.850;2.904;2023-08-24T00:59:22;1157.20;;;999.90;;
21213;SDS011;10764;50.850;2.904;2023-08-24T01:01:49;1049.65;;;960.70;;
21213;SDS011;10764;50.850;2.904;2023-08-24T01:04:18;1162.28;;;999.90;;
21213;SDS011;10764;50.850;2.904;2023-08-24T01:06:45;981.25;;;897.22;;
21213;SDS011;10764;50.850;2.904;2023-08-24T01:09:12;913.10;;;834.53;;
21213;SDS011;10764;50.850;2.904;2023-08-24T01:11:43;841.55;;;768.50;;
21213;SDS011;10764;50.850;2.904;2023-08-24T01:14:24;962.17;;;879.43;;
21213;SDS011;10764;50.850;2.904;2023-08-24T01:16:56;1019.97;;;932.90;;
21213;SDS011;10764;50.850;2.904;2023-08-24T01:19:37;1105.57;;;999.90;;
21213;SDS011;10764;50.850;2.904;2023-08-24T01:22:07;739.60;;;674.55;;
21213;SDS011;10764;50.850;2.904;2023-08-24T01:24:39;758.22;;;691.63;;
21213;SDS011;10764;50.850;2.904;2023-08-24T01:27:24;666.97;;;607.47;;
21213;SDS011;10764;50.850;2.904;2023-08-24T01:34:41;704.63;;;642.13;;
21213;SDS011;10764;50.850;2.904;2023-08-24T01:37:09;791.67;;;722.55;;
21213;SDS011;10764;50.850;2.904;2023-08-24T01:39:42;814.35;;;743.40;;
21213;SDS011;10764;50.850;2.904;2023-08-24T01:42:10;814.28;;;743.28;;
21213;SDS011;10764;50.850;2.904;2023-08-24T01:44:43;822.92;;;751.38;;
21213;SDS011;10764;50.850;2.904;2023-08-24T01:47:14;935.85;;;855.13;;
21213;SDS011;10764;50.850;2.904;2023-08-24T01:49:42;1127.35;;;999.90;;
21213;SDS011;10764;50.850;2.904;2023-08-24T01:52:10;1172.18;;;999.90;;
21213;SDS011;10764;50.850;2.904;2023-08-24T01:54:38;1244.38;;;999.90;;
21213;SDS011;10764;50.850;2.904;2023-08-24T01:57:05;1218.18;;;999.90;;
21213;SDS011;10764;50.850;2.904;2023-08-24T01:59:33;1207.40;;;999.90;;
21213;SDS011;10764;50.850;2.904;2023-08-24T02:02:00;1077.28;;;983.45;;
21213;SDS011;10764;50.850;2.904;2023-08-24T02:04:27;916.63;;;837.58;;
21213;SDS011;10764;50.850;2.904;2023-08-24T02:06:56;1218.90;;;999.90;;
21213;SDS011;10764;50.850;2.904;2023-08-24T02:09:24;1145.90;;;999.90;;
21213;SDS011;10764;50.850;2.904;2023-08-24T02:11:51;1210.47;;;999.90;;
21213;SDS011;10764;50.850;2.904;2023-08-24T02:14:18;1202.18;;;999.90;;
21213;SDS011;10764;50.850;2.904;2023-08-24T02:16:45;1210.03;;;999.90;;
21213;SDS011;10764;50.850;2.904;2023-08-24T02:19:13;1233.22;;;999.90;;
21213;SDS011;10764;50.850;2.904;2023-08-24T02:21:40;1178.10;;;999.90;;
21213;SDS011;10764;50.850;2.904;2023-08-24T02:24:07;1239.85;;;999.90;;
21213;SDS011;10764;50.850;2.904;2023-08-24T02:38:47;1204.00;;;999.90;;
21213;SDS011;10764;50.850;2.904;2023-08-24T02:42:24;1185.40;;;999.90;;
21213;SDS011;10764;50.850;2.904;2023-08-24T02:46:03;1219.67;;;999.90;;
21213;SDS011;10764;50.850;2.904;2023-08-24T02:48:50;1208.10;;;999.90;;
21213;SDS011;10764;50.850;2.904;2023-08-24T02:52:32;1223.38;;;999.90;;
21213;SDS011;10764;50.850;2.904;2023-08-24T02:56:08;1028.53;;;935.67;;
21213;SDS011;10764;50.850;2.904;2023-08-24T03:06:13;1225.55;;;999.90;;
21213;SDS011;10764;50.850;2.904;2023-08-24T03:08:40;1225.60;;;999.90;;
21213;SDS011;10764;50.850;2.904;2023-08-24T03:11:07;1188.30;;;999.90;;
21213;SDS011;10764;50.850;2.904;2023-08-24T03:13:36;1175.35;;;999.90;;
21213;SDS011;10764;50.850;2.904;2023-08-24T03:16:07;1233.82;;;999.90;;
21213;SDS011;10764;50.850;2.904;2023-08-24T03:18:36;1064.65;;;974.50;;
21213;SDS011;10764;50.850;2.904;2023-08-24T03:21:03;1044.28;;;955.55;;
21213;SDS011;10764;50.850;2.904;2023-08-24T03:23:32;1060.47;;;970.40;;
21213;SDS011;10764;50.850;2.904;2023-08-24T03:26:00;1012.58;;;926.30;;
21213;SDS011;10764;50.850;2.904;2023-08-24T03:28:27;1183.25;;;999.90;;
21213;SDS011;10764;50.850;2.904;2023-08-24T03:30:54;1170.75;;;999.90;;
21213;SDS011;10764;50.850;2.904;2023-08-24T03:33:22;1195.28;;;999.90;;
21213;SDS011;10764;50.850;2.904;2023-08-24T03:35:49;1224.72;;;999.90;;
21213;SDS011;10764;50.850;2.904;2023-08-24T03:38:18;1202.05;;;999.90;;
21213;SDS011;10764;50.850;2.904;2023-08-24T03:40:45;1219.28;;;999.90;;
21213;SDS011;10764;50.850;2.904;2023-08-24T03:43:13;1123.25;;;999.90;;
21213;SDS011;10764;50.850;2.904;2023-08-24T03:45:41;1196.20;;;999.90;;
21213;SDS011;10764;50.850;2.904;2023-08-24T03:48:10;1217.32;;;999.90;;
21213;SDS011;10764;50.850;2.904;2023-08-24T03:50:37;767.23;;;700.20;;
21213;SDS011;10764;50.850;2.904;2023-08-24T03:53:05;834.63;;;762.40;;
21213;SDS011;10764;50.850;2.904;2023-08-24T03:55:33;1069.63;;;972.90;;
21213;SDS011;10764;50.850;2.904;2023-08-24T03:58:00;1216.30;;;999.90;;
21213;SDS011;10764;50.850;2.904;2023-08-24T04:00:28;1211.85;;;999.90;;
21213;SDS011;10764;50.850;2.904;2023-08-24T04:02:55;1107.60;;;999.90;;
21213;SDS011;10764;50.850;2.904;2023-08-24T04:05:25;1222.50;;;999.90;;
21213;SDS011;10764;50.850;2.904;2023-08-24T04:07:52;1163.67;;;999.90;;
21213;SDS011;10764;50.850;2.904;2023-08-24T04:10:19;1193.85;;;999.90;;
21213;SDS011;10764;50.850;2.904;2023-08-24T04:12:47;1172.10;;;999.90;;
21213;SDS011;10764;50.850;2.904;2023-08-24T04:23:23;1172.32;;;999.90;;
21213;SDS011;10764;50.850;2.904;2023-08-24T04:25:51;475.15;;;432.65;;
21213;SDS011;10764;50.850;2.904;2023-08-24T04:28:18;1003.45;;;917.88;;
21213;SDS011;10764;50.850;2.904;2023-08-24T04:30:50;1053.47;;;963.83;;
21213;SDS011;10764;50.850;2.904;2023-08-24T04:33:17;1011.73;;;925.37;;
21213;SDS011;10764;50.850;2.904;2023-08-24T04:35:46;1192.00;;;999.90;;
21213;SDS011;10764;50.850;2.904;2023-08-24T04:38:14;1148.88;;;999.90;;
21213;SDS011;10764;50.850;2.904;2023-08-24T04:40:54;1072.60;;;980.47;;
21213;SDS011;10764;50.850;2.904;2023-08-24T04:43:22;390.67;;;355.67;;
21213;SDS011;10764;50.850;2.904;2023-08-24T04:45:52;298.83;;;272.35;;
21213;SDS011;10764;50.850;2.904;2023-08-24T04:48:20;282.50;;;257.48;;
21213;SDS011;10764;50.850;2.904;2023-08-24T04:50:47;226.02;;;205.65;;
21213;SDS011;10764;50.850;2.904;2023-08-24T04:53:16;344.00;;;313.47;;
21213;SDS011;10764;50.850;2.904;2023-08-24T04:55:44;346.00;;;315.23;;
21213;SDS011;10764;50.850;2.904;2023-08-24T04:58:12;307.30;;;279.95;;
21213;SDS011;10764;50.850;2.904;2023-08-24T05:00:40;302.00;;;275.40;;
21213;SDS011;10764;50.850;2.904;2023-08-24T05:03:07;323.02;;;294.38;;
21213;SDS011;10764;50.850;2.904;2023-08-24T05:05:37;349.67;;;318.67;;
21213;SDS011;10764;50.850;2.904;2023-08-24T05:08:04;338.05;;;307.95;;
21213;SDS011;10764;50.850;2.904;2023-08-24T05:10:36;353.38;;;322.20;;
21213;SDS011;10764;50.850;2.904;2023-08-24T05:13:04;401.60;;;365.58;;
21213;SDS011;10764;50.850;2.904;2023-08-24T05:15:31;444.08;;;404.40;;
21213;SDS011;10764;50.850;2.904;2023-08-24T05:17:58;606.43;;;551.73;;
21213;SDS011;10764;50.850;2.904;2023-08-24T05:20:26;587.53;;;534.72;;
21213;SDS011;10764;50.850;2.904;2023-08-24T05:22:54;627.33;;;571.22;;
21213;SDS011;10764;50.850;2.904;2023-08-24T05:25:21;575.03;;;523.40;;
21213;SDS011;10764;50.850;2.904;2023-08-24T05:27:49;473.08;;;430.70;;
21213;SDS011;10764;50.850;2.904;2023-08-24T05:33:30;977.17;;;893.58;;
21213;SDS011;10764;50.850;2.904;2023-08-24T05:35:59;880.05;;;804.35;;
21213;SDS011;10764;50.850;2.904;2023-08-24T05:38:29;908.38;;;830.38;;
21213;SDS011;10764;50.850;2.904;2023-08-24T05:40:57;936.05;;;855.92;;
21213;SDS011;10764;50.850;2.904;2023-08-24T05:43:24;964.35;;;881.92;;
21213;SDS011;10764;50.850;2.904;2023-08-24T05:45:51;740.47;;;675.57;;
21213;SDS011;10764;50.850;2.904;2023-08-24T05:48:19;876.20;;;800.58;;
21213;SDS011;10764;50.850;2.904;2023-08-24T05:50:46;902.22;;;824.88;;
21213;SDS011;10764;50.850;2.904;2023-08-24T05:53:13;801.83;;;732.25;;
21213;SDS011;10764;50.850;2.904;2023-08-24T05:55:41;811.40;;;740.95;;
21213;SDS011;10764;50.850;2.904;2023-08-24T05:58:08;856.95;;;782.83;;
21213;SDS011;10764;50.850;2.904;2023-08-24T06:00:35;821.47;;;750.55;;
21213;SDS011;10764;50.850;2.904;2023-08-24T06:03:03;954.17;;;872.77;;
21213;SDS011;10764;50.850;2.904;2023-08-24T06:05:30;844.33;;;771.30;;
21213;SDS011;10764;50.850;2.904;2023-08-24T06:07:58;829.47;;;757.55;;
21213;SDS011;10764;50.850;2.904;2023-08-24T06:10:25;832.60;;;760.67;;
21213;SDS011;10764;50.850;2.904;2023-08-24T06:12:53;861.65;;;787.45;;
21213;SDS011;10764;50.850;2.904;2023-08-24T06:15:21;896.60;;;819.58;;
21213;SDS011;10764;50.850;2.904;2023-08-24T06:17:50;862.10;;;787.75;;
21213;SDS011;10764;50.850;2.904;2023-08-24T06:20:19;796.25;;;726.78;;
21213;SDS011;10764;50.850;2.904;2023-08-24T06:22:46;865.97;;;791.15;;
21213;SDS011;10764;50.850;2.904;2023-08-24T06:25:14;793.50;;;724.33;;
21213;SDS011;10764;50.850;2.904;2023-08-24T06:27:41;912.60;;;834.08;;
21213;SDS011;10764;50.850;2.904;2023-08-24T06:30:11;774.47;;;706.73;;
21213;SDS011;10764;50.850;2.904;2023-08-24T06:32:38;636.22;;;579.13;;
21213;SDS011;10764;50.850;2.904;2023-08-24T06:35:06;663.22;;;604.30;;
21213;SDS011;10764;50.850;2.904;2023-08-24T06:37:33;672.50;;;612.85;;
21213;SDS011;10764;50.850;2.904;2023-08-24T06:40:01;597.13;;;543.20;;
21213;SDS011;10764;50.850;2.904;2023-08-24T06:42:30;606.70;;;552.05;;
21213;SDS011;10764;50.850;2.904;2023-08-24T06:44:58;679.50;;;619.10;;
21213;SDS011;10764;50.850;2.904;2023-08-24T06:47:25;690.03;;;629.13;;
21213;SDS011;10764;50.850;2.904;2023-08-24T06:49:52;855.55;;;781.40;;
21213;SDS011;10764;50.850;2.904;2023-08-24T06:52:20;756.37;;;690.13;;
21213;SDS011;10764;50.850;2.904;2023-08-24T06:54:47;757.58;;;691.13;;
21213;SDS011;10764;50.850;2.904;2023-08-24T06:57:19;763.10;;;695.92;;
21213;SDS011;10764;50.850;2.904;2023-08-24T06:59:46;666.53;;;605.72;;
21213;SDS011;10764;50.850;2.904;2023-08-24T07:02:13;764.30;;;696.08;;
21213;SDS011;10764;50.850;2.904;2023-08-24T07:04:41;468.05;;;422.77;;
21213;SDS011;10764;50.850;2.904;2023-08-24T07:07:08;508.30;;;459.85;;
21213;SDS011;10764;50.850;2.904;2023-08-24T07:09:35;539.13;;;488.55;;
21213;SDS011;10764;50.850;2.904;2023-08-24T07:12:03;561.25;;;508.92;;
21213;SDS011;10764;50.850;2.904;2023-08-24T07:14:33;528.75;;;479.00;;
21213;SDS011;10764;50.850;2.904;2023-08-24T07:17:00;539.65;;;489.13;;
21213;SDS011;10764;50.850;2.904;2023-08-24T07:19:27;557.65;;;505.48;;
21213;SDS011;10764;50.850;2.904;2023-08-24T07:21:54;635.40;;;577.28;;
21213;SDS011;10764;50.850;2.904;2023-08-24T07:24:22;492.48;;;446.20;;
21213;SDS011;10764;50.850;2.904;2023-08-24T07:27:10;411.52;;;372.83;;
21213;SDS011;10764;50.850;2.904;2023-08-24T07:29:37;555.72;;;503.75;;
21213;SDS011;10764;50.850;2.904;2023-08-24T07:32:04;794.58;;;724.50;;
21213;SDS011;10764;50.850;2.904;2023-08-24T07:34:31;734.72;;;669.58;;
21213;SDS011;10764;50.850;2.904;2023-08-24T07:36:59;702.33;;;637.90;;
21213;SDS011;10764;50.850;2.904;2023-08-24T07:39:26;709.15;;;644.28;;
21213;SDS011;10764;50.850;2.904;2023-08-24T07:41:53;724.15;;;658.30;;
21213;SDS011;10764;50.850;2.904;2023-08-24T07:44:21;804.58;;;732.08;;
21213;SDS011;10764;50.850;2.904;2023-08-24T07:46:48;913.42;;;833.25;;
21213;SDS011;10764;50.850;2.904;2023-08-24T07:49:15;945.88;;;863.58;;
21213;SDS011;10764;50.850;2.904;2023-08-24T07:51:43;1053.95;;;963.67;;
21213;SDS011;10764;50.850;2.904;2023-08-24T07:54:10;1046.30;;;956.80;;
21213;SDS011;10764;50.850;2.904;2023-08-24T07:56:37;1044.97;;;955.65;;
21213;SDS011;10764;50.850;2.904;2023-08-24T07:59:05;837.25;;;764.03;;
21213;SDS011;10764;50.850;2.904;2023-08-24T08:01:32;802.05;;;731.75;;
21213;SDS011;10764;50.850;2.904;2023-08-24T08:03:59;788.40;;;718.95;;
21213;SDS011;10764;50.850;2.904;2023-08-24T08:06:27;756.80;;;690.20;;
21213;SDS011;10764;50.850;2.904;2023-08-24T08:08:54;789.00;;;720.03;;
21213;SDS011;10764;50.850;2.904;2023-08-24T08:11:22;865.67;;;790.38;;
21213;SDS011;10764;50.850;2.904;2023-08-24T08:13:50;860.35;;;785.53;;
21213;SDS011;10764;50.850;2.904;2023-08-24T08:16:17;897.47;;;820.22;;
21213;SDS011;10764;50.850;2.904;2023-08-24T08:18:44;1014.92;;;928.47;;
21213;SDS011;10764;50.850;2.904;2023-08-24T08:21:14;1189.63;;;999.90;;
21213;SDS011;10764;50.850;2.904;2023-08-24T08:23:47;1089.75;;;995.33;;
21213;SDS011;10764;50.850;2.904;2023-08-24T08:26:15;1117.38;;;999.90;;
21213;SDS011;10764;50.850;2.904;2023-08-24T08:28:42;1130.20;;;999.90;;
21213;SDS011;10764;50.850;2.904;2023-08-24T08:31:10;1224.22;;;999.90;;
21213;SDS011;10764;50.850;2.904;2023-08-24T08:33:38;1189.30;;;999.90;;
21213;SDS011;10764;50.850;2.904;2023-08-24T08:36:05;1110.43;;;999.90;;
21213;SDS011;10764;50.850;2.904;2023-08-24T08:38:33;1162.57;;;999.90;;
21213;SDS011;10764;50.850;2.904;2023-08-24T08:41:03;855.55;;;780.15;;
21213;SDS011;10764;50.850;2.904;2023-08-24T08:43:31;742.85;;;677.35;;
21213;SDS011;10764;50.850;2.904;2023-08-24T08:45:59;1119.93;;;999.90;;
21213;SDS011;10764;50.850;2.904;2023-08-24T08:48:28;1126.57;;;999.90;;
21213;SDS011;10764;50.850;2.904;2023-08-24T08:50:57;982.17;;;897.80;;
21213;SDS011;10764;50.850;2.904;2023-08-24T08:53:25;857.60;;;783.10;;
21213;SDS011;10764;50.850;2.904;2023-08-24T08:55:53;688.83;;;627.63;;
21213;SDS011;10764;50.850;2.904;2023-08-24T08:58:21;1057.37;;;966.50;;
21213;SDS011;10764;50.850;2.904;2023-08-24T09:00:49;504.70;;;458.97;;
21213;SDS011;10764;50.850;2.904;2023-08-24T09:03:17;472.00;;;429.07;;
21213;SDS011;10764;50.850;2.904;2023-08-24T09:05:45;597.53;;;543.22;;
21213;SDS011;10764;50.850;2.904;2023-08-24T09:08:16;646.13;;;588.35;;
21213;SDS011;10764;50.850;2.904;2023-08-24T09:10:44;723.80;;;660.00;;
21213;SDS011;10764;50.850;2.904;2023-08-24T09:13:11;710.80;;;647.90;;
21213;SDS011;10764;50.850;2.904;2023-08-24T09:15:39;631.20;;;574.47;;
21213;SDS011;10764;50.850;2.904;2023-08-24T09:18:06;717.25;;;653.80;;
21213;SDS011;10764;50.850;2.904;2023-08-24T09:20:34;577.33;;;525.03;;
21213;SDS011;10764;50.850;2.904;2023-08-24T09:23:02;567.97;;;516.37;;
21213;SDS011;10764;50.850;2.904;2023-08-24T09:25:30;634.63;;;577.67;;
21213;SDS011;10764;50.850;2.904;2023-08-24T09:27:58;714.53;;;651.38;;
21213;SDS011;10764;50.850;2.904;2023-08-24T09:30:31;753.55;;;687.53;;
21213;SDS011;10764;50.850;2.904;2023-08-24T09:33:12;979.78;;;895.60;;
21213;SDS011;10764;50.850;2.904;2023-08-24T09:35:39;895.78;;;818.25;;
21213;SDS011;10764;50.850;2.904;2023-08-24T09:38:21;963.10;;;880.42;;
21213;SDS011;10764;50.850;2.904;2023-08-24T09:40:52;955.13;;;871.85;;
21213;SDS011;10764;50.850;2.904;2023-08-24T09:43:20;778.97;;;710.63;;
21213;SDS011;10764;50.850;2.904;2023-08-24T09:45:48;864.08;;;788.88;;
21213;SDS011;10764;50.850;2.904;2023-08-24T09:48:16;753.22;;;687.10;;
21213;SDS011;10764;50.850;2.904;2023-08-24T09:50:44;693.10;;;631.67;;
21213;SDS011;10764;50.850;2.904;2023-08-24T09:53:15;351.50;;;320.07;;
21213;SDS011;10764;50.850;2.904;2023-08-24T09:58:23;329.15;;;299.35;;
21213;SDS011;10764;50.850;2.904;2023-08-24T10:00:50;328.15;;;298.85;;
21213;SDS011;10764;50.850;2.904;2023-08-24T10:03:18;368.73;;;335.58;;
21213;SDS011;10764;50.850;2.904;2023-08-24T10:05:50;388.37;;;353.60;;
21213;SDS011;10764;50.850;2.904;2023-08-24T10:08:26;436.23;;;396.73;;
21213;SDS011;10764;50.850;2.904;2023-08-24T10:10:55;497.60;;;452.80;;
21213;SDS011;10764;50.850;2.904;2023-08-24T10:16:03;285.92;;;260.50;;
21213;SDS011;10764;50.850;2.904;2023-08-24T10:18:31;337.05;;;306.98;;
21213;SDS011;10764;50.850;2.904;2023-08-24T10:20:58;344.38;;;313.65;;
21213;SDS011;10764;50.850;2.904;2023-08-24T10:23:27;282.13;;;256.65;;
21213;SDS011;10764;50.850;2.904;2023-08-24T10:25:56;295.50;;;269.17;;
21213;SDS011;10764;50.850;2.904;2023-08-24T10:28:24;318.17;;;289.80;;
21213;SDS011;10764;50.850;2.904;2023-08-24T10:30:52;352.92;;;321.52;;
21213;SDS011;10764;50.850;2.904;2023-08-24T10:33:21;372.08;;;338.75;;
21213;SDS011;10764;50.850;2.904;2023-08-24T10:35:49;399.70;;;363.77;;
21213;SDS011;10764;50.850;2.904;2023-08-24T10:38:23;340.08;;;309.65;;
21213;SDS011;10764;50.850;2.904;2023-08-24T10:40:51;297.63;;;271.13;;
21213;SDS011;10764;50.850;2.904;2023-08-24T10:43:18;351.02;;;319.48;;
21213;SDS011;10764;50.850;2.904;2023-08-24T10:45:58;400.17;;;364.13;;
21213;SDS011;10764;50.850;2.904;2023-08-24T10:49:12;383.85;;;349.35;;
21213;SDS011;10764;50.850;2.904;2023-08-24T10:53:42;406.85;;;370.27;;
21213;SDS011;10764;50.850;2.904;2023-08-24T10:56:14;394.60;;;359.20;;
21213;SDS011;10764;50.850;2.904;2023-08-24T10:58:43;426.77;;;388.27;;
21213;SDS011;10764;50.850;2.904;2023-08-24T11:01:17;395.13;;;359.60;;
21213;SDS011;10764;50.850;2.904;2023-08-24T11:03:55;445.23;;;405.00;;
21213;SDS011;10764;50.850;2.904;2023-08-24T11:06:24;453.70;;;413.10;;
21213;SDS011;10764;50.850;2.904;2023-08-24T11:09:08;141.32;;;128.73;;
21213;SDS011;10764;50.850;2.904;2023-08-24T11:11:40;208.70;;;189.88;;
21213;SDS011;10764;50.850;2.904;2023-08-24T11:14:17;385.75;;;351.17;;
21213;SDS011;10764;50.850;2.904;2023-08-24T11:16:57;395.02;;;359.75;;
21213;SDS011;10764;50.850;2.904;2023-08-24T11:19:25;384.40;;;349.90;;
21213;SDS011;10764;50.850;2.904;2023-08-24T11:21:53;468.33;;;426.00;;
21213;SDS011;10764;50.850;2.904;2023-08-24T11:24:20;483.45;;;439.83;;
21213;SDS011;10764;50.850;2.904;2023-08-24T11:26:48;311.17;;;283.45;;
21213;SDS011;10764;50.850;2.904;2023-08-24T11:29:15;314.13;;;286.27;;
21213;SDS011;10764;50.850;2.904;2023-08-24T11:31:47;338.55;;;308.45;;
21213;SDS011;10764;50.850;2.904;2023-08-24T11:34:15;339.10;;;308.85;;
21213;SDS011;10764;50.850;2.904;2023-08-24T11:36:43;302.80;;;275.88;;
21213;SDS011;10764;50.850;2.904;2023-08-24T11:39:19;301.73;;;274.73;;
21213;SDS011;10764;50.850;2.904;2023-08-24T11:42:02;300.45;;;273.50;;
21213;SDS011;10764;50.850;2.904;2023-08-24T11:44:44;241.70;;;220.13;;
21213;SDS011;10764;50.850;2.904;2023-08-24T11:47:15;286.35;;;260.80;;
21213;SDS011;10764;50.850;2.904;2023-08-24T11:49:42;315.83;;;287.37;;
21213;SDS011;10764;50.850;2.904;2023-08-24T11:52:09;162.95;;;148.60;;
21213;SDS011;10764;50.850;2.904;2023-08-24T11:54:37;266.67;;;242.88;;
21213;SDS011;10764;50.850;2.904;2023-08-24T11:57:07;362.75;;;330.55;;
21213;SDS011;10764;50.850;2.904;2023-08-24T11:59:35;304.20;;;276.85;;
21213;SDS011;10764;50.850;2.904;2023-08-24T12:02:03;304.85;;;277.77;;
21213;SDS011;10764;50.850;2.904;2023-08-24T12:04:38;338.05;;;307.67;;
21213;SDS011;10764;50.850;2.904;2023-08-24T12:07:09;117.18;;;107.15;;
21213;SDS011;10764;50.850;2.904;2023-08-24T12:09:40;278.17;;;253.32;;
21213;SDS011;10764;50.850;2.904;2023-08-24T12:12:14;218.70;;;199.23;;
21213;SDS011;10764;50.850;2.904;2023-08-24T12:14:42;237.10;;;215.80;;
21213;SDS011;10764;50.850;2.904;2023-08-24T12:17:10;78.97;;;72.40;;
21213;SDS011;10764;50.850;2.904;2023-08-24T12:19:40;252.55;;;229.57;;
21213;SDS011;10764;50.850;2.904;2023-08-24T12:22:13;258.95;;;235.75;;
21213;SDS011;10764;50.850;2.904;2023-08-24T12:24:44;293.98;;;267.58;;
21213;SDS011;10764;50.850;2.904;2023-08-24T12:29:46;266.07;;;241.90;;
21213;SDS011;10764;50.850;2.904;2023-08-24T12:32:13;310.90;;;283.23;;
21213;SDS011;10764;50.850;2.904;2023-08-24T12:34:42;310.60;;;282.35;;
21213;SDS011;10764;50.850;2.904;2023-08-24T12:37:09;244.90;;;223.20;;
21213;SDS011;10764;50.850;2.904;2023-08-24T12:39:37;266.08;;;242.27;;
21213;SDS011;10764;50.850;2.904;2023-08-24T12:42:04;232.98;;;212.15;;
21213;SDS011;10764;50.850;2.904;2023-08-24T12:44:32;125.88;;;114.93;;
21213;SDS011;10764;50.850;2.904;2023-08-24T12:46:59;289.27;;;263.27;;
21213;SDS011;10764;50.850;2.904;2023-08-24T12:49:26;291.90;;;265.67;;
21213;SDS011;10764;50.850;2.904;2023-08-24T12:51:54;284.70;;;257.75;;
21213;SDS011;10764;50.850;2.904;2023-08-24T12:54:22;297.17;;;270.52;;
21213;SDS011;10764;50.850;2.904;2023-08-24T12:56:50;269.90;;;245.95;;
21213;SDS011;10764;50.850;2.904;2023-08-24T12:59:18;285.65;;;259.77;;
21213;SDS011;10764;50.850;2.904;2023-08-24T13:01:46;284.88;;;259.30;;
21213;SDS011;10764;50.850;2.904;2023-08-24T13:04:13;217.63;;;198.25;;
21213;SDS011;10764;50.850;2.904;2023-08-24T13:06:40;205.43;;;187.03;;
21213;SDS011;10764;50.850;2.904;2023-08-24T13:09:08;241.25;;;219.63;;
21213;SDS011;10764;50.850;2.904;2023-08-24T13:11:35;248.73;;;226.18;;
21213;SDS011;10764;50.850;2.904;2023-08-24T13:14:03;245.85;;;223.88;;
21213;SDS011;10764;50.850;2.904;2023-08-24T13:16:30;208.68;;;189.93;;
21213;SDS011;10764;50.850;2.904;2023-08-24T13:18:57;204.40;;;186.17;;
21213;SDS011;10764;50.850;2.904;2023-08-24T13:21:25;179.98;;;163.90;;
21213;SDS011;10764;50.850;2.904;2023-08-24T13:23:53;166.88;;;152.07;;
21213;SDS011;10764;50.850;2.904;2023-08-24T13:26:20;180.55;;;164.48;;
21213;SDS011;10764;50.850;2.904;2023-08-24T13:28:47;175.88;;;160.25;;
21213;SDS011;10764;50.850;2.904;2023-08-24T13:31:15;190.00;;;172.93;;
21213;SDS011;10764;50.850;2.904;2023-08-24T13:33:42;153.03;;;139.77;;
21213;SDS011;10764;50.850;2.904;2023-08-24T13:36:10;153.13;;;139.68;;
21213;SDS011;10764;50.850;2.904;2023-08-24T13:38:37;193.07;;;175.63;;
21213;SDS011;10764;50.850;2.904;2023-08-24T13:41:04;188.70;;;171.70;;
21213;SDS011;10764;50.850;2.904;2023-08-24T13:43:31;214.45;;;195.30;;
21213;SDS011;10764;50.850;2.904;2023-08-24T13:45:59;238.30;;;217.07;;
21213;SDS011;10764;50.850;2.904;2023-08-24T13:48:30;194.18;;;176.95;;
21213;SDS011;10764;50.850;2.904;2023-08-24T13:51:00;212.75;;;193.82;;
21213;SDS011;10764;50.850;2.904;2023-08-24T13:53:28;146.63;;;133.57;;
21213;SDS011;10764;50.850;2.904;2023-08-24T13:55:55;111.60;;;102.03;;
21213;SDS011;10764;50.850;2.904;2023-08-24T13:58:22;136.48;;;124.55;;
21213;SDS011;10764;50.850;2.904;2023-08-24T14:00:56;115.43;;;105.40;;
21213;SDS011;10764;50.850;2.904;2023-08-24T14:03:23;136.07;;;124.47;;
21213;SDS011;10764;50.850;2.904;2023-08-24T14:05:54;175.33;;;159.53;;
21213;SDS011;10764;50.850;2.904;2023-08-24T14:08:22;153.90;;;140.50;;
21213;SDS011;10764;50.850;2.904;2023-08-24T14:10:52;89.88;;;82.15;;
21213;SDS011;10764;50.850;2.904;2023-08-24T14:13:19;131.15;;;120.00;;
21213;SDS011;10764;50.850;2.904;2023-08-24T14:15:49;169.87;;;154.70;;
21213;SDS011;10764;50.850;2.904;2023-08-24T14:18:17;199.32;;;181.82;;
21213;SDS011;10764;50.850;2.904;2023-08-24T14:20:44;218.13;;;198.90;;
21213;SDS011;10764;50.850;2.904;2023-08-24T14:23:11;214.05;;;195.13;;
21213;SDS011;10764;50.850;2.904;2023-08-24T14:25:38;208.82;;;190.32;;
21213;SDS011;10764;50.850;2.904;2023-08-24T14:28:06;206.43;;;188.10;;
21213;SDS011;10764;50.850;2.904;2023-08-24T14:30:36;35.40;;;32.60;;
21213;SDS011;10764;50.850;2.904;2023-08-24T14:33:03;144.07;;;131.57;;
21213;SDS011;10764;50.850;2.904;2023-08-24T14:35:31;195.00;;;177.57;;
21213;SDS011;10764;50.850;2.904;2023-08-24T14:37:59;163.50;;;148.95;;
21213;SDS011;10764;50.850;2.904;2023-08-24T14:40:26;119.80;;;109.53;;
21213;SDS011;10764;50.850;2.904;2023-08-24T14:42:54;150.57;;;137.48;;
21213;SDS011;10764;50.850;2.904;2023-08-24T14:45:21;139.57;;;127.37;;
21213;SDS011;10764;50.850;2.904;2023-08-24T14:47:49;131.50;;;120.20;;
21213;SDS011;10764;50.850;2.904;2023-08-24T14:50:17;101.13;;;92.63;;
21213;SDS011;10764;50.850;2.904;2023-08-24T14:52:44;134.13;;;122.68;;
21213;SDS011;10764;50.850;2.904;2023-08-24T14:55:11;159.85;;;145.98;;
21213;SDS011;10764;50.850;2.904;2023-08-24T14:57:39;153.27;;;140.07;;
21213;SDS011;10764;50.850;2.904;2023-08-24T15:00:06;154.68;;;141.13;;
21213;SDS011;10764;50.850;2.904;2023-08-24T15:02:36;149.50;;;136.65;;
21213;SDS011;10764;50.850;2.904;2023-08-24T15:05:03;171.75;;;156.35;;